Terminal Aerodrome Forecast
Issued by NWS

Home | Current Version | Previous Version | Text Only | Print | Product List | Glossary On
Versions: 1 2 3 4 5 6 7 8 9 10 11 12 13 14 15
000
FTUS44 KSJT 172300
TAFSOA
TAF
KSOA 172331Z 1800/1824 15006KT P6SM VCSH SCT050
     FM180200 VRB04KT P6SM BKN100
     FM181000 13006KT P6SM SCT025 BKN050
     FM181500 12008KT P6SM SCT050=

USA.gov is the U.S. government's official web portal to all federal, state and local government web resources and services.